sensor_id;sensor_type;location;lat;lon;timestamp;temperature;humidity
1175;DHT22;576;48.418;10.074;2023-05-07T00:01:48;25.10;59.00
1175;DHT22;576;48.418;10.074;2023-05-07T00:04:16;25.10;59.00
1175;DHT22;576;48.418;10.074;2023-05-07T00:06:44;25.10;59.00
1175;DHT22;576;48.418;10.074;2023-05-07T00:09:13;25.10;59.00
1175;DHT22;576;48.418;10.074;2023-05-07T00:11:41;25.10;59.00
1175;DHT22;576;48.418;10.074;2023-05-07T00:14:09;25.10;59.00
1175;DHT22;576;48.418;10.074;2023-05-07T00:16:37;25.10;59.00
1175;DHT22;576;48.418;10.074;2023-05-07T00:19:07;25.10;59.00
1175;DHT22;576;48.418;10.074;2023-05-07T00:21:35;25.10;59.00
1175;DHT22;576;48.418;10.074;2023-05-07T00:24:04;25.10;59.00
1175;DHT22;576;48.418;10.074;2023-05-07T00:26:32;25.10;59.00
1175;DHT22;576;48.418;10.074;2023-05-07T00:29:00;25.00;59.10
1175;DHT22;576;48.418;10.074;2023-05-07T00:31:28;25.10;59.10
1175;DHT22;576;48.418;10.074;2023-05-07T00:33:56;25.00;59.10
1175;DHT22;576;48.418;10.074;2023-05-07T00:36:26;25.00;59.10
1175;DHT22;576;48.418;10.074;2023-05-07T00:38:54;25.00;59.10
1175;DHT22;576;48.418;10.074;2023-05-07T00:41:23;25.00;59.10
1175;DHT22;576;48.418;10.074;2023-05-07T00:43:51;25.00;59.10
1175;DHT22;576;48.418;10.074;2023-05-07T00:46:20;25.00;59.10
1175;DHT22;576;48.418;10.074;2023-05-07T00:48:50;25.00;59.10
1175;DHT22;576;48.418;10.074;2023-05-07T00:51:18;25.00;59.20
1175;DHT22;576;48.418;10.074;2023-05-07T00:53:48;25.00;59.20
1175;DHT22;576;48.418;10.074;2023-05-07T00:56:17;25.00;59.20
1175;DHT22;576;48.418;10.074;2023-05-07T00:58:45;25.00;59.30
1175;DHT22;576;48.418;10.074;2023-05-07T01:01:14;25.00;59.20
1175;DHT22;576;48.418;10.074;2023-05-07T01:03:43;25.00;59.30
1175;DHT22;576;48.418;10.074;2023-05-07T01:06:13;25.00;59.20
1175;DHT22;576;48.418;10.074;2023-05-07T01:08:44;25.00;59.30
1175;DHT22;576;48.418;10.074;2023-05-07T01:11:15;25.00;59.30
1175;DHT22;576;48.418;10.074;2023-05-07T01:13:43;25.00;59.40
1175;DHT22;576;48.418;10.074;2023-05-07T01:16:12;25.00;59.30
1175;DHT22;576;48.418;10.074;2023-05-07T01:18:41;25.00;59.30
1175;DHT22;576;48.418;10.074;2023-05-07T01:21:11;24.90;59.40
1175;DHT22;576;48.418;10.074;2023-05-07T01:23:43;24.90;59.40
1175;DHT22;576;48.418;10.074;2023-05-07T01:26:12;24.90;59.40
1175;DHT22;576;48.418;10.074;2023-05-07T01:28:43;24.90;59.40
1175;DHT22;576;48.418;10.074;2023-05-07T01:31:12;24.90;59.40
1175;DHT22;576;48.418;10.074;2023-05-07T01:33:42;24.90;59.40
1175;DHT22;576;48.418;10.074;2023-05-07T01:36:12;24.90;59.40
1175;DHT22;576;48.418;10.074;2023-05-07T01:38:42;24.90;59.40
1175;DHT22;576;48.418;10.074;2023-05-07T01:41:11;24.90;59.40
1175;DHT22;576;48.418;10.074;2023-05-07T01:43:41;24.90;59.50
1175;DHT22;576;48.418;10.074;2023-05-07T01:46:10;24.90;59.50
1175;DHT22;576;48.418;10.074;2023-05-07T01:48:40;24.90;59.50
1175;DHT22;576;48.418;10.074;2023-05-07T01:51:08;24.90;59.50
1175;DHT22;576;48.418;10.074;2023-05-07T01:53:37;24.90;59.50
1175;DHT22;576;48.418;10.074;2023-05-07T01:56:07;24.90;59.50
1175;DHT22;576;48.418;10.074;2023-05-07T01:58:38;24.90;59.50
1175;DHT22;576;48.418;10.074;2023-05-07T02:01:07;24.80;59.50
1175;DHT22;576;48.418;10.074;2023-05-07T02:03:36;24.80;59.50
1175;DHT22;576;48.418;10.074;2023-05-07T02:06:11;24.80;59.50
1175;DHT22;576;48.418;10.074;2023-05-07T02:08:39;24.80;59.50
1175;DHT22;576;48.418;10.074;2023-05-07T02:11:10;24.80;59.50
1175;DHT22;576;48.418;10.074;2023-05-07T02:13:38;24.80;59.50
1175;DHT22;576;48.418;10.074;2023-05-07T02:16:07;24.80;59.50
1175;DHT22;576;48.418;10.074;2023-05-07T02:18:35;24.80;59.50
1175;DHT22;576;48.418;10.074;2023-05-07T02:21:03;24.80;59.50
1175;DHT22;576;48.418;10.074;2023-05-07T02:23:32;24.80;59.50
1175;DHT22;576;48.418;10.074;2023-05-07T02:26:01;24.80;59.60
1175;DHT22;576;48.418;10.074;2023-05-07T02:28:30;24.80;59.60
1175;DHT22;576;48.418;10.074;2023-05-07T02:31:02;24.80;59.60
1175;DHT22;576;48.418;10.074;2023-05-07T02:33:31;24.80;59.60
1175;DHT22;576;48.418;10.074;2023-05-07T02:36:06;24.80;59.60
1175;DHT22;576;48.418;10.074;2023-05-07T02:38:37;24.80;59.60
1175;DHT22;576;48.418;10.074;2023-05-07T02:41:05;24.80;59.60
1175;DHT22;576;48.418;10.074;2023-05-07T02:43:35;24.80;59.60
1175;DHT22;576;48.418;10.074;2023-05-07T02:46:03;24.80;59.60
1175;DHT22;576;48.418;10.074;2023-05-07T02:48:35;24.70;59.60
1175;DHT22;576;48.418;10.074;2023-05-07T02:51:04;24.70;59.60
1175;DHT22;576;48.418;10.074;2023-05-07T02:53:34;24.70;59.60
1175;DHT22;576;48.418;10.074;2023-05-07T02:56:02;24.70;59.60
1175;DHT22;576;48.418;10.074;2023-05-07T02:58:30;24.70;59.60
1175;DHT22;576;48.418;10.074;2023-05-07T03:01:02;24.70;59.70
1175;DHT22;576;48.418;10.074;2023-05-07T03:03:35;24.70;59.70
1175;DHT22;576;48.418;10.074;2023-05-07T03:06:03;24.70;59.60
1175;DHT22;576;48.418;10.074;2023-05-07T03:08:32;24.70;59.70
1175;DHT22;576;48.418;10.074;2023-05-07T03:11:03;24.70;59.70
1175;DHT22;576;48.418;10.074;2023-05-07T03:13:31;24.70;59.70
1175;DHT22;576;48.418;10.074;2023-05-07T03:16:01;24.70;59.70
1175;DHT22;576;48.418;10.074;2023-05-07T03:18:29;24.70;59.70
1175;DHT22;576;48.418;10.074;2023-05-07T03:20:58;24.70;59.70
1175;DHT22;576;48.418;10.074;2023-05-07T03:23:26;24.70;59.70
1175;DHT22;576;48.418;10.074;2023-05-07T03:25:54;24.70;59.70
1175;DHT22;576;48.418;10.074;2023-05-07T03:28:22;24.70;59.70
1175;DHT22;576;48.418;10.074;2023-05-07T03:30:56;24.70;59.70
1175;DHT22;576;48.418;10.074;2023-05-07T03:33:26;24.70;59.70
1175;DHT22;576;48.418;10.074;2023-05-07T03:35:55;24.60;59.70
1175;DHT22;576;48.418;10.074;2023-05-07T03:38:25;24.60;59.70
1175;DHT22;576;48.418;10.074;2023-05-07T03:40:54;24.60;59.70
1175;DHT22;576;48.418;10.074;2023-05-07T03:43:22;24.60;59.70
1175;DHT22;576;48.418;10.074;2023-05-07T03:45:58;24.60;59.70
1175;DHT22;576;48.418;10.074;2023-05-07T03:48:29;24.60;59.70
1175;DHT22;576;48.418;10.074;2023-05-07T03:50:59;24.60;59.70
1175;DHT22;576;48.418;10.074;2023-05-07T03:53:32;24.60;59.70
1175;DHT22;576;48.418;10.074;2023-05-07T03:56:00;24.60;59.70
1175;DHT22;576;48.418;10.074;2023-05-07T03:58:33;24.60;59.70
1175;DHT22;576;48.418;10.074;2023-05-07T04:01:06;24.60;59.80
1175;DHT22;576;48.418;10.074;2023-05-07T04:03:36;24.60;59.70
1175;DHT22;576;48.418;10.074;2023-05-07T04:06:04;24.60;59.70
1175;DHT22;576;48.418;10.074;2023-05-07T04:08:34;24.60;59.70
1175;DHT22;576;48.418;10.074;2023-05-07T04:11:04;24.60;59.70
1175;DHT22;576;48.418;10.074;2023-05-07T04:13:34;24.60;59.70
1175;DHT22;576;48.418;10.074;2023-05-07T04:16:05;24.60;59.70
1175;DHT22;576;48.418;10.074;2023-05-07T04:18:37;24.60;59.80
1175;DHT22;576;48.418;10.074;2023-05-07T04:21:05;24.60;59.70
1175;DHT22;576;48.418;10.074;2023-05-07T04:23:37;24.60;59.80
1175;DHT22;576;48.418;10.074;2023-05-07T04:26:09;24.60;59.70
1175;DHT22;576;48.418;10.074;2023-05-07T04:28:41;24.60;59.80
1175;DHT22;576;48.418;10.074;2023-05-07T04:31:09;24.60;59.80
1175;DHT22;576;48.418;10.074;2023-05-07T04:33:40;24.60;59.80
1175;DHT22;576;48.418;10.074;2023-05-07T04:36:11;24.60;59.70
1175;DHT22;576;48.418;10.074;2023-05-07T04:38:47;24.60;59.70
1175;DHT22;576;48.418;10.074;2023-05-07T04:41:16;24.60;59.70
1175;DHT22;576;48.418;10.074;2023-05-07T04:43:44;24.60;59.70
1175;DHT22;576;48.418;10.074;2023-05-07T04:46:14;24.60;59.70
1175;DHT22;576;48.418;10.074;2023-05-07T04:48:45;24.60;59.70
1175;DHT22;576;48.418;10.074;2023-05-07T04:51:13;24.60;59.70
1175;DHT22;576;48.418;10.074;2023-05-07T04:53:41;24.60;59.80
1175;DHT22;576;48.418;10.074;2023-05-07T04:56:10;24.60;59.70
1175;DHT22;576;48.418;10.074;2023-05-07T04:58:41;24.60;59.70
1175;DHT22;576;48.418;10.074;2023-05-07T05:01:10;24.60;59.70
1175;DHT22;576;48.418;10.074;2023-05-07T05:03:39;24.60;59.70
1175;DHT22;576;48.418;10.074;2023-05-07T05:06:09;24.60;59.70
1175;DHT22;576;48.418;10.074;2023-05-07T05:08:38;24.60;59.70
1175;DHT22;576;48.418;10.074;2023-05-07T05:11:06;24.60;59.70
1175;DHT22;576;48.418;10.074;2023-05-07T05:13:35;24.60;59.70
1175;DHT22;576;48.418;10.074;2023-05-07T05:16:14;24.60;59.70
1175;DHT22;576;48.418;10.074;2023-05-07T05:18:43;24.60;59.70
1175;DHT22;576;48.418;10.074;2023-05-07T05:21:15;24.60;59.70
1175;DHT22;576;48.418;10.074;2023-05-07T05:23:46;24.60;59.70
1175;DHT22;576;48.418;10.074;2023-05-07T05:26:18;24.60;59.70
1175;DHT22;576;48.418;10.074;2023-05-07T05:28:48;24.60;59.70
1175;DHT22;576;48.418;10.074;2023-05-07T05:31:19;24.60;59.70
1175;DHT22;576;48.418;10.074;2023-05-07T05:33:49;24.60;59.70
1175;DHT22;576;48.418;10.074;2023-05-07T05:36:19;24.60;59.60
1175;DHT22;576;48.418;10.074;2023-05-07T05:38:49;24.60;59.70
1175;DHT22;576;48.418;10.074;2023-05-07T05:41:17;24.60;59.70
1175;DHT22;576;48.418;10.074;2023-05-07T05:43:45;24.60;59.70
1175;DHT22;576;48.418;10.074;2023-05-07T05:46:14;24.70;59.70
1175;DHT22;576;48.418;10.074;2023-05-07T05:48:43;24.70;59.60
1175;DHT22;576;48.418;10.074;2023-05-07T05:51:11;24.70;59.60
1175;DHT22;576;48.418;10.074;2023-05-07T05:53:41;24.70;59.60
1175;DHT22;576;48.418;10.074;2023-05-07T05:56:09;24.70;59.60
1175;DHT22;576;48.418;10.074;2023-05-07T05:58:40;24.70;59.60
1175;DHT22;576;48.418;10.074;2023-05-07T06:01:09;24.70;59.60
1175;DHT22;576;48.418;10.074;2023-05-07T06:03:38;24.70;59.60
1175;DHT22;576;48.418;10.074;2023-05-07T06:06:12;24.70;59.60
1175;DHT22;576;48.418;10.074;2023-05-07T06:08:44;24.70;59.60
1175;DHT22;576;48.418;10.074;2023-05-07T06:11:17;24.70;59.60
1175;DHT22;576;48.418;10.074;2023-05-07T06:13:46;24.80;59.60
1175;DHT22;576;48.418;10.074;2023-05-07T06:16:15;24.80;59.60
1175;DHT22;576;48.418;10.074;2023-05-07T06:18:43;24.70;59.70
1175;DHT22;576;48.418;10.074;2023-05-07T06:21:14;24.70;59.70
1175;DHT22;576;48.418;10.074;2023-05-07T06:23:45;24.80;59.70
1175;DHT22;576;48.418;10.074;2023-05-07T06:26:13;24.80;59.70
1175;DHT22;576;48.418;10.074;2023-05-07T06:28:45;24.80;59.70
1175;DHT22;576;48.418;10.074;2023-05-07T06:31:16;24.80;59.70
1175;DHT22;576;48.418;10.074;2023-05-07T06:33:53;24.80;59.70
1175;DHT22;576;48.418;10.074;2023-05-07T06:36:25;24.80;59.70
1175;DHT22;576;48.418;10.074;2023-05-07T06:38:57;24.80;59.70
1175;DHT22;576;48.418;10.074;2023-05-07T06:41:26;24.90;59.70
1175;DHT22;576;48.418;10.074;2023-05-07T06:43:57;24.90;59.70
1175;DHT22;576;48.418;10.074;2023-05-07T06:46:37;24.90;59.80
1175;DHT22;576;48.418;10.074;2023-05-07T06:49:06;24.90;59.80
1175;DHT22;576;48.418;10.074;2023-05-07T06:51:34;24.90;59.80
1175;DHT22;576;48.418;10.074;2023-05-07T06:54:04;24.90;59.80
1175;DHT22;576;48.418;10.074;2023-05-07T06:56:35;24.90;59.70
1175;DHT22;576;48.418;10.074;2023-05-07T06:59:05;24.90;59.80
1175;DHT22;576;48.418;10.074;2023-05-07T07:01:38;24.90;59.80
1175;DHT22;576;48.418;10.074;2023-05-07T07:04:07;24.90;59.90
1175;DHT22;576;48.418;10.074;2023-05-07T07:06:37;24.90;59.90
1175;DHT22;576;48.418;10.074;2023-05-07T07:09:10;24.90;60.00
1175;DHT22;576;48.418;10.074;2023-05-07T07:11:39;24.90;60.10
1175;DHT22;576;48.418;10.074;2023-05-07T07:14:08;24.90;60.10
1175;DHT22;576;48.418;10.074;2023-05-07T07:16:44;24.90;60.10
1175;DHT22;576;48.418;10.074;2023-05-07T07:19:14;25.00;60.10
1175;DHT22;576;48.418;10.074;2023-05-07T07:21:44;25.00;60.10
1175;DHT22;576;48.418;10.074;2023-05-07T07:24:14;25.00;60.10
1175;DHT22;576;48.418;10.074;2023-05-07T07:26:47;25.00;60.20
1175;DHT22;576;48.418;10.074;2023-05-07T07:29:16;25.00;60.10
1175;DHT22;576;48.418;10.074;2023-05-07T07:31:47;25.00;60.10
1175;DHT22;576;48.418;10.074;2023-05-07T07:34:17;25.00;60.00
1175;DHT22;576;48.418;10.074;2023-05-07T07:36:45;25.00;60.10
1175;DHT22;576;48.418;10.074;2023-05-07T07:39:18;25.00;60.00
1175;DHT22;576;48.418;10.074;2023-05-07T07:41:49;25.00;60.10
1175;DHT22;576;48.418;10.074;2023-05-07T07:44:19;25.00;60.10
1175;DHT22;576;48.418;10.074;2023-05-07T07:46:52;25.10;60.00
1175;DHT22;576;48.418;10.074;2023-05-07T07:49:22;25.10;60.00
1175;DHT22;576;48.418;10.074;2023-05-07T07:51:51;25.10;60.00
1175;DHT22;576;48.418;10.074;2023-05-07T07:54:20;25.10;60.10
1175;DHT22;576;48.418;10.074;2023-05-07T07:56:49;25.10;60.10
1175;DHT22;576;48.418;10.074;2023-05-07T07:59:17;25.10;60.10
1175;DHT22;576;48.418;10.074;2023-05-07T08:01:49;25.10;60.10
1175;DHT22;576;48.418;10.074;2023-05-07T08:04:22;25.10;60.10
1175;DHT22;576;48.418;10.074;2023-05-07T08:06:52;25.10;62.40
1175;DHT22;576;48.418;10.074;2023-05-07T08:09:22;25.10;63.40
1175;DHT22;576;48.418;10.074;2023-05-07T08:11:52;25.20;62.90
1175;DHT22;576;48.418;10.074;2023-05-07T08:14:20;25.20;62.80
1175;DHT22;576;48.418;10.074;2023-05-07T08:16:49;25.20;62.30
1175;DHT22;576;48.418;10.074;2023-05-07T08:19:17;25.20;62.00
1175;DHT22;576;48.418;10.074;2023-05-07T08:21:45;25.20;61.70
1175;DHT22;576;48.418;10.074;2023-05-07T08:24:15;25.30;61.60
1175;DHT22;576;48.418;10.074;2023-05-07T08:26:46;25.30;62.40
1175;DHT22;576;48.418;10.074;2023-05-07T08:29:14;25.20;63.90
1175;DHT22;576;48.418;10.074;2023-05-07T08:31:43;25.20;64.00
1175;DHT22;576;48.418;10.074;2023-05-07T08:34:11;25.30;63.80
1175;DHT22;576;48.418;10.074;2023-05-07T08:40:42;25.30;63.70
1175;DHT22;576;48.418;10.074;2023-05-07T08:43:18;25.30;63.70
1175;DHT22;576;48.418;10.074;2023-05-07T08:45:49;25.30;63.70
1175;DHT22;576;48.418;10.074;2023-05-07T08:48:22;25.30;63.60
1175;DHT22;576;48.418;10.074;2023-05-07T08:51:00;25.30;63.60
1175;DHT22;576;48.418;10.074;2023-05-07T08:53:28;25.30;63.40
1175;DHT22;576;48.418;10.074;2023-05-07T08:55:57;25.30;63.30
1175;DHT22;576;48.418;10.074;2023-05-07T08:58:27;25.40;63.00
1175;DHT22;576;48.418;10.074;2023-05-07T09:00:56;25.40;62.90
1175;DHT22;576;48.418;10.074;2023-05-07T09:03:24;25.40;62.80
1175;DHT22;576;48.418;10.074;2023-05-07T09:05:55;25.40;62.80
1175;DHT22;576;48.418;10.074;2023-05-07T09:08:26;25.40;62.70
1175;DHT22;576;48.418;10.074;2023-05-07T09:10:57;25.40;62.70
1175;DHT22;576;48.418;10.074;2023-05-07T09:13:27;25.40;62.70
1175;DHT22;576;48.418;10.074;2023-05-07T09:15:57;25.40;62.70
1175;DHT22;576;48.418;10.074;2023-05-07T09:18:25;25.50;62.60
1175;DHT22;576;48.418;10.074;2023-05-07T09:20:55;25.40;62.80
1175;DHT22;576;48.418;10.074;2023-05-07T09:23:24;25.40;62.90
1175;DHT22;576;48.418;10.074;2023-05-07T09:26:00;25.40;62.90
1175;DHT22;576;48.418;10.074;2023-05-07T09:28:33;25.40;62.90
1175;DHT22;576;48.418;10.074;2023-05-07T09:31:01;25.50;62.80
1175;DHT22;576;48.418;10.074;2023-05-07T09:33:30;25.50;62.70
1175;DHT22;576;48.418;10.074;2023-05-07T09:36:05;25.50;62.70
1175;DHT22;576;48.418;10.074;2023-05-07T09:38:36;25.50;62.60
1175;DHT22;576;48.418;10.074;2023-05-07T09:41:07;25.50;62.60
1175;DHT22;576;48.418;10.074;2023-05-07T09:43:44;25.50;62.50
1175;DHT22;576;48.418;10.074;2023-05-07T09:46:15;25.50;62.50
1175;DHT22;576;48.418;10.074;2023-05-07T09:48:52;25.50;62.50
1175;DHT22;576;48.418;10.074;2023-05-07T09:51:25;25.50;62.50
1175;DHT22;576;48.418;10.074;2023-05-07T09:54:00;25.50;62.40
1175;DHT22;576;48.418;10.074;2023-05-07T09:56:33;25.50;62.40
1175;DHT22;576;48.418;10.074;2023-05-07T09:59:07;25.50;62.40
1175;DHT22;576;48.418;10.074;2023-05-07T10:01:37;25.50;62.30
1175;DHT22;576;48.418;10.074;2023-05-07T10:04:06;25.60;62.30
1175;DHT22;576;48.418;10.074;2023-05-07T10:06:36;25.60;62.20
1175;DHT22;576;48.418;10.074;2023-05-07T10:09:06;25.60;62.30
1175;DHT22;576;48.418;10.074;2023-05-07T10:11:36;25.60;62.20
1175;DHT22;576;48.418;10.074;2023-05-07T10:14:07;25.60;62.30
1175;DHT22;576;48.418;10.074;2023-05-07T10:16:36;25.60;62.20
1175;DHT22;576;48.418;10.074;2023-05-07T10:19:10;25.60;62.10
1175;DHT22;576;48.418;10.074;2023-05-07T10:21:47;25.60;62.00
1175;DHT22;576;48.418;10.074;2023-05-07T10:24:21;25.60;62.10
1175;DHT22;576;48.418;10.074;2023-05-07T10:26:53;25.70;62.00
1175;DHT22;576;48.418;10.074;2023-05-07T10:29:33;25.70;62.00
1175;DHT22;576;48.418;10.074;2023-05-07T10:32:23;25.70;62.00
1175;DHT22;576;48.418;10.074;2023-05-07T10:35:01;25.70;61.90
1175;DHT22;576;48.418;10.074;2023-05-07T10:37:31;25.70;61.90
1175;DHT22;576;48.418;10.074;2023-05-07T10:40:01;25.70;61.80
1175;DHT22;576;48.418;10.074;2023-05-07T10:42:31;25.70;61.80
1175;DHT22;576;48.418;10.074;2023-05-07T10:45:13;25.70;61.80
1175;DHT22;576;48.418;10.074;2023-05-07T10:48:11;25.70;61.90
1175;DHT22;576;48.418;10.074;2023-05-07T10:50:49;25.70;61.90
1175;DHT22;576;48.418;10.074;2023-05-07T10:53:22;25.70;61.80
1175;DHT22;576;48.418;10.074;2023-05-07T10:56:26;25.70;61.80
1175;DHT22;576;48.418;10.074;2023-05-07T10:59:35;25.70;61.90
1175;DHT22;576;48.418;10.074;2023-05-07T11:03:04;25.70;61.80
1175;DHT22;576;48.418;10.074;2023-05-07T11:06:09;25.70;61.90
1175;DHT22;576;48.418;10.074;2023-05-07T11:08:54;25.70;61.90
1175;DHT22;576;48.418;10.074;2023-05-07T11:11:46;25.70;61.90
1175;DHT22;576;48.418;10.074;2023-05-07T11:14:44;25.70;61.80
1175;DHT22;576;48.418;10.074;2023-05-07T11:17:17;25.70;61.80
1175;DHT22;576;48.418;10.074;2023-05-07T11:19:55;25.70;61.90
1175;DHT22;576;48.418;10.074;2023-05-07T11:22:37;25.70;61.90
1175;DHT22;576;48.418;10.074;2023-05-07T11:25:28;25.70;61.90
1175;DHT22;576;48.418;10.074;2023-05-07T11:28:08;25.70;61.90
1175;DHT22;576;48.418;10.074;2023-05-07T11:30:47;25.70;61.90
1175;DHT22;576;48.418;10.074;2023-05-07T11:33:18;25.80;61.90
1175;DHT22;576;48.418;10.074;2023-05-07T11:35:51;25.80;61.90
1175;DHT22;576;48.418;10.074;2023-05-07T11:38:23;25.80;61.80
1175;DHT22;576;48.418;10.074;2023-05-07T11:40:53;25.90;61.80
1175;DHT22;576;48.418;10.074;2023-05-07T11:43:22;25.90;61.70
1175;DHT22;576;48.418;10.074;2023-05-07T11:45:50;26.00;61.60
1175;DHT22;576;48.418;10.074;2023-05-07T11:48:20;26.00;61.60
1175;DHT22;576;48.418;10.074;2023-05-07T11:50:59;26.10;61.60
1175;DHT22;576;48.418;10.074;2023-05-07T11:53:35;26.10;61.50
1175;DHT22;576;48.418;10.074;2023-05-07T11:56:07;26.20;61.40
1175;DHT22;576;48.418;10.074;2023-05-07T11:58:37;26.30;61.20
1175;DHT22;576;48.418;10.074;2023-05-07T12:01:08;26.40;61.10
1175;DHT22;576;48.418;10.074;2023-05-07T12:03:39;26.40;60.90
1175;DHT22;576;48.418;10.074;2023-05-07T12:06:12;26.50;60.70
1175;DHT22;576;48.418;10.074;2023-05-07T12:08:42;26.60;60.60
1175;DHT22;576;48.418;10.074;2023-05-07T12:11:15;26.60;60.50
1175;DHT22;576;48.418;10.074;2023-05-07T12:13:49;26.70;60.40
1175;DHT22;576;48.418;10.074;2023-05-07T12:16:18;26.70;60.30
1175;DHT22;576;48.418;10.074;2023-05-07T12:18:48;26.70;60.30
1175;DHT22;576;48.418;10.074;2023-05-07T12:21:18;26.70;60.00
1175;DHT22;576;48.418;10.074;2023-05-07T12:23:47;26.60;60.20
1175;DHT22;576;48.418;10.074;2023-05-07T12:26:16;26.50;60.40
1175;DHT22;576;48.418;10.074;2023-05-07T12:28:44;26.40;60.70
1175;DHT22;576;48.418;10.074;2023-05-07T12:31:14;26.30;60.90
1175;DHT22;576;48.418;10.074;2023-05-07T12:33:43;26.30;61.10
1175;DHT22;576;48.418;10.074;2023-05-07T12:36:12;26.30;61.10
1175;DHT22;576;48.418;10.074;2023-05-07T12:38:42;26.20;61.10
1175;DHT22;576;48.418;10.074;2023-05-07T12:41:11;26.20;61.20
1175;DHT22;576;48.418;10.074;2023-05-07T12:43:44;26.20;61.20
1175;DHT22;576;48.418;10.074;2023-05-07T12:46:13;26.10;61.20
1175;DHT22;576;48.418;10.074;2023-05-07T12:48:44;26.10;61.30
1175;DHT22;576;48.418;10.074;2023-05-07T12:51:14;26.10;61.30
1175;DHT22;576;48.418;10.074;2023-05-07T12:53:45;26.10;61.30
1175;DHT22;576;48.418;10.074;2023-05-07T12:56:15;26.10;61.30
1175;DHT22;576;48.418;10.074;2023-05-07T12:58:44;26.10;61.40
1175;DHT22;576;48.418;10.074;2023-05-07T13:01:13;26.10;61.40
1175;DHT22;576;48.418;10.074;2023-05-07T13:03:48;26.10;61.50
1175;DHT22;576;48.418;10.074;2023-05-07T13:06:18;26.10;61.40
1175;DHT22;576;48.418;10.074;2023-05-07T13:08:48;26.10;61.40
1175;DHT22;576;48.418;10.074;2023-05-07T13:11:16;26.10;61.40
1175;DHT22;576;48.418;10.074;2023-05-07T13:13:45;26.10;61.30
1175;DHT22;576;48.418;10.074;2023-05-07T13:16:14;26.10;61.30
1175;DHT22;576;48.418;10.074;2023-05-07T13:18:42;26.10;61.40
1175;DHT22;576;48.418;10.074;2023-05-07T13:21:12;26.10;61.50
1175;DHT22;576;48.418;10.074;2023-05-07T13:23:41;26.10;61.50
1175;DHT22;576;48.418;10.074;2023-05-07T13:26:10;26.00;61.50
1175;DHT22;576;48.418;10.074;2023-05-07T13:28:53;26.00;61.50
1175;DHT22;576;48.418;10.074;2023-05-07T13:31:21;26.00;61.60
1175;DHT22;576;48.418;10.074;2023-05-07T13:33:49;25.90;61.60
1175;DHT22;576;48.418;10.074;2023-05-07T13:36:18;25.90;61.60
1175;DHT22;576;48.418;10.074;2023-05-07T13:38:46;25.90;61.60
1175;DHT22;576;48.418;10.074;2023-05-07T13:41:15;25.90;61.70
1175;DHT22;576;48.418;10.074;2023-05-07T13:43:44;25.90;61.70
1175;DHT22;576;48.418;10.074;2023-05-07T13:46:12;25.90;61.70
1175;DHT22;576;48.418;10.074;2023-05-07T13:48:40;25.90;61.70
1175;DHT22;576;48.418;10.074;2023-05-07T13:51:08;25.90;61.60
1175;DHT22;576;48.418;10.074;2023-05-07T13:53:37;25.90;61.70
1175;DHT22;576;48.418;10.074;2023-05-07T13:56:05;25.90;61.60
1175;DHT22;576;48.418;10.074;2023-05-07T13:58:35;25.90;61.60
1175;DHT22;576;48.418;10.074;2023-05-07T14:01:11;25.90;61.60
1175;DHT22;576;48.418;10.074;2023-05-07T14:03:39;25.80;61.60
1175;DHT22;576;48.418;10.074;2023-05-07T14:06:08;25.80;61.60
1175;DHT22;576;48.418;10.074;2023-05-07T14:08:36;25.80;61.60
1175;DHT22;576;48.418;10.074;2023-05-07T14:11:04;25.80;61.60
1175;DHT22;576;48.418;10.074;2023-05-07T14:13:32;25.80;61.60
1175;DHT22;576;48.418;10.074;2023-05-07T14:16:04;25.80;61.60
1175;DHT22;576;48.418;10.074;2023-05-07T14:18:33;25.80;61.60
1175;DHT22;576;48.418;10.074;2023-05-07T14:21:04;25.80;61.60
1175;DHT22;576;48.418;10.074;2023-05-07T14:23:34;25.80;61.50
1175;DHT22;576;48.418;10.074;2023-05-07T14:26:03;25.70;61.60
1175;DHT22;576;48.418;10.074;2023-05-07T14:28:31;25.70;61.60
1175;DHT22;576;48.418;10.074;2023-05-07T14:30:59;25.70;61.50
1175;DHT22;576;48.418;10.074;2023-05-07T14:33:29;25.70;61.60
1175;DHT22;576;48.418;10.074;2023-05-07T14:35:57;25.70;61.60
1175;DHT22;576;48.418;10.074;2023-05-07T14:38:25;25.70;61.60
1175;DHT22;576;48.418;10.074;2023-05-07T14:40:54;25.70;61.60
1175;DHT22;576;48.418;10.074;2023-05-07T14:43:23;25.70;61.60
1175;DHT22;576;48.418;10.074;2023-05-07T14:45:52;25.70;61.60
1175;DHT22;576;48.418;10.074;2023-05-07T14:48:20;25.70;61.60
1175;DHT22;576;48.418;10.074;2023-05-07T14:50:49;25.70;61.80
1175;DHT22;576;48.418;10.074;2023-05-07T14:53:18;25.70;61.60
1175;DHT22;576;48.418;10.074;2023-05-07T14:55:47;25.70;61.80
1175;DHT22;576;48.418;10.074;2023-05-07T14:58:15;25.70;61.80
1175;DHT22;576;48.418;10.074;2023-05-07T15:00:44;25.60;61.80
1175;DHT22;576;48.418;10.074;2023-05-07T15:03:12;25.60;61.80
1175;DHT22;576;48.418;10.074;2023-05-07T15:05:42;25.60;61.80
1175;DHT22;576;48.418;10.074;2023-05-07T15:08:12;25.60;61.60
1175;DHT22;576;48.418;10.074;2023-05-07T15:10:40;25.60;61.60
1175;DHT22;576;48.418;10.074;2023-05-07T15:13:09;25.60;61.60
1175;DHT22;576;48.418;10.074;2023-05-07T15:15:42;25.60;61.60
1175;DHT22;576;48.418;10.074;2023-05-07T15:18:11;25.60;61.60
1175;DHT22;576;48.418;10.074;2023-05-07T15:20:39;25.60;61.60
1175;DHT22;576;48.418;10.074;2023-05-07T15:23:08;25.60;61.60
1175;DHT22;576;48.418;10.074;2023-05-07T15:25:41;25.60;61.60
1175;DHT22;576;48.418;10.074;2023-05-07T15:28:09;25.50;61.60
1175;DHT22;576;48.418;10.074;2023-05-07T15:30:37;25.50;61.60
1175;DHT22;576;48.418;10.074;2023-05-07T15:33:06;25.50;61.60
1175;DHT22;576;48.418;10.074;2023-05-07T15:35:34;25.50;61.60
1175;DHT22;576;48.418;10.074;2023-05-07T15:38:02;25.50;61.60
1175;DHT22;576;48.418;10.074;2023-05-07T15:40:30;25.50;61.60
1175;DHT22;576;48.418;10.074;2023-05-07T15:43:01;25.50;61.80
1175;DHT22;576;48.418;10.074;2023-05-07T15:45:29;25.50;61.60
1175;DHT22;576;48.418;10.074;2023-05-07T15:47:57;25.50;61.60
1175;DHT22;576;48.418;10.074;2023-05-07T15:50:26;25.50;61.80
1175;DHT22;576;48.418;10.074;2023-05-07T15:52:55;25.50;61.50
1175;DHT22;576;48.418;10.074;2023-05-07T15:55:24;25.40;61.80
1175;DHT22;576;48.418;10.074;2023-05-07T15:57:52;25.40;61.80
1175;DHT22;576;48.418;10.074;2023-05-07T16:00:22;25.40;61.90
1175;DHT22;576;48.418;10.074;2023-05-07T16:02:51;25.40;62.10
1175;DHT22;576;48.418;10.074;2023-05-07T16:05:19;25.50;62.00
1175;DHT22;576;48.418;10.074;2023-05-07T16:07:47;25.50;62.10
1175;DHT22;576;48.418;10.074;2023-05-07T16:10:15;25.50;62.10
1175;DHT22;576;48.418;10.074;2023-05-07T16:12:44;25.60;62.10
1175;DHT22;576;48.418;10.074;2023-05-07T16:15:12;25.60;62.00
1175;DHT22;576;48.418;10.074;2023-05-07T16:17:45;25.60;61.90
1175;DHT22;576;48.418;10.074;2023-05-07T16:20:13;25.60;61.80
1175;DHT22;576;48.418;10.074;2023-05-07T16:22:45;25.60;61.60
1175;DHT22;576;48.418;10.074;2023-05-07T16:25:14;25.60;61.90
1175;DHT22;576;48.418;10.074;2023-05-07T16:27:42;25.50;62.10
1175;DHT22;576;48.418;10.074;2023-05-07T16:30:11;25.50;61.90